createdAt,value
2019-02-21T00:00:23.939Z,101497.56
2019-02-21T00:22:41.417Z,101511.75
2019-02-21T00:25:08.898Z,101519.62
2019-02-21T00:27:36.559Z,101516.39
2019-02-21T00:30:04.805Z,101517.87
2019-02-21T00:32:32.419Z,101514.63
2019-02-21T00:35:00.323Z,101519.48
2019-02-21T00:37:27.714Z,101523.02
2019-02-21T00:39:54.808Z,101522.69
2019-02-21T00:42:22.069Z,101524.30
2019-02-21T00:44:50.003Z,101517.20
2019-02-21T00:47:17.883Z,101516.28
2019-02-21T00:49:45.422Z,101511.89
2019-02-21T00:52:12.971Z,101514.55
2019-02-21T00:54:40.227Z,101524.78
2019-02-21T00:57:07.497Z,101525.75
2019-02-21T00:59:34.903Z,101524.73
2019-02-21T01:02:02.856Z,101524.52
2019-02-21T01:04:33.360Z,101527.03
2019-02-21T01:07:00.718Z,101529.50
2019-02-21T01:09:28.283Z,101523.88
2019-02-21T01:11:55.627Z,101522.83
2019-02-21T01:14:22.860Z,101528.44
2019-02-21T01:16:49.983Z,101532.48
2019-02-21T01:19:17.745Z,101524.73
2019-02-21T01:21:45.702Z,101531.31
2019-02-21T01:24:12.851Z,101531.94
2019-02-21T01:26:40.118Z,101532.53
2019-02-21T01:29:07.964Z,101532.71
2019-02-21T01:31:36.552Z,101534.39
2019-02-21T01:34:03.989Z,101532.81
2019-02-21T01:36:31.926Z,101540.80
2019-02-21T01:38:59.348Z,101538.43
2019-02-21T01:41:26.876Z,101542.80
2019-02-21T01:43:54.440Z,101538.97
2019-02-21T01:46:23.725Z,101543.80
2019-02-21T01:48:51.745Z,101542.44
2019-02-21T01:51:19.556Z,101536.33
2019-02-21T01:53:47.674Z,101541.22
2019-02-21T01:56:15.199Z,101545.87
2019-02-21T01:58:42.726Z,101538.89
2019-02-21T02:01:09.929Z,101538.92
2019-02-21T02:03:38.203Z,101539.81
2019-02-21T02:06:05.570Z,101537.80
2019-02-21T02:08:33.500Z,101539.72
2019-02-21T02:11:01.275Z,101534.38
2019-02-21T02:13:28.432Z,101541.70
2019-02-21T02:15:56.340Z,101545.86
2019-02-21T02:18:24.215Z,101541.41
2019-02-21T02:20:52.124Z,101540.38
2019-02-21T02:23:19.283Z,101549.50
2019-02-21T02:25:46.649Z,101543.45
2019-02-21T02:28:14.660Z,101544.77
2019-02-21T02:30:42.383Z,101540.04
2019-02-21T02:33:10.210Z,101545.30
2019-02-21T02:35:37.799Z,101551.50
2019-02-21T02:38:06.139Z,101541.08
2019-02-21T02:40:34.119Z,101549.69
2019-02-21T02:43:01.579Z,101548.16
2019-02-21T02:45:29.746Z,101555.64
2019-02-21T02:47:57.240Z,101553.88
2019-02-21T02:50:24.479Z,101557.67
2019-02-21T02:52:52.664Z,101559.52
2019-02-21T02:55:19.961Z,101563.55
2019-02-21T02:57:47.169Z,101557.12
2019-02-21T03:00:14.640Z,101554.09
2019-02-21T03:02:42.347Z,101555.03
2019-02-21T03:05:10.511Z,101552.37
2019-02-21T03:07:37.855Z,101556.88
2019-02-21T03:10:07.829Z,101557.16
2019-02-21T03:12:35.234Z,101557.51
2019-02-21T03:15:03.603Z,101557.89
2019-02-21T03:17:31.452Z,101567.00
2019-02-21T03:19:59.611Z,101565.37
2019-02-21T03:22:26.957Z,101570.89
2019-02-21T03:24:55.441Z,101571.98
2019-02-21T03:27:22.946Z,101574.15
2019-02-21T03:29:50.899Z,101571.70
2019-02-21T03:32:18.358Z,101573.13
2019-02-21T03:34:45.808Z,101578.48
2019-02-21T03:37:13.138Z,101579.19
2019-02-21T03:39:40.408Z,101583.34
2019-02-21T03:42:08.016Z,101582.31
2019-02-21T03:44:35.312Z,101566.81
2019-02-21T03:47:02.843Z,101568.28
2019-02-21T03:49:30.688Z,101571.39
2019-02-21T03:51:58.714Z,101578.34
2019-02-21T03:54:26.245Z,101580.77
2019-02-21T03:56:54.439Z,101577.34
2019-02-21T03:59:22.544Z,101574.36
2019-02-21T04:01:51.167Z,101575.27
2019-02-21T04:04:18.791Z,101581.50
2019-02-21T04:06:46.031Z,101586.12
2019-02-21T04:09:13.439Z,101586.91
2019-02-21T04:11:41.017Z,101583.92
2019-02-21T04:14:08.898Z,101581.16
2019-02-21T04:16:36.543Z,101579.34
2019-02-21T04:19:04.107Z,101576.14
2019-02-21T04:21:31.755Z,101583.06
2019-02-21T04:23:59.078Z,101575.05
2019-02-21T04:26:26.757Z,101571.55
2019-02-21T04:28:54.045Z,101574.59
2019-02-21T04:31:21.919Z,101570.66
2019-02-21T04:33:49.828Z,101565.39
2019-02-21T04:36:17.204Z,101564.03
2019-02-21T04:38:45.047Z,101565.17
2019-02-21T04:41:12.479Z,101570.19
2019-02-21T04:43:40.202Z,101566.66
2019-02-21T04:46:07.680Z,101566.32
2019-02-21T04:48:35.377Z,101560.87
2019-02-21T04:51:03.040Z,101564.53
2019-02-21T04:53:30.916Z,101564.87
2019-02-21T04:55:58.892Z,101565.14
2019-02-21T04:58:26.811Z,101561.58
2019-02-21T05:00:54.298Z,101563.38
2019-02-21T05:03:21.422Z,101569.12
2019-02-21T05:05:48.980Z,101568.25
2019-02-21T05:08:16.647Z,101569.76
2019-02-21T05:10:44.234Z,101568.64
2019-02-21T05:13:11.498Z,101565.70
2019-02-21T05:15:38.904Z,101564.12
2019-02-21T05:18:06.545Z,101554.94
2019-02-21T05:20:34.044Z,101558.14
2019-02-21T05:23:01.447Z,101552.53
2019-02-21T05:25:28.955Z,101560.87
2019-02-21T05:28:16.117Z,101576.94
2019-02-21T05:30:44.129Z,101573.05
2019-02-21T05:33:29.478Z,101579.03
2019-02-21T05:36:18.970Z,101580.57
2019-02-21T05:39:07.302Z,101577.09
2019-02-21T05:41:41.804Z,101571.70
2019-02-21T05:44:27.467Z,101572.70
2019-02-21T05:47:00.375Z,101574.98
2019-02-21T05:49:46.094Z,101567.16
2019-02-21T05:52:30.634Z,101579.03
2019-02-21T05:55:02.357Z,101576.44
2019-02-21T05:57:45.987Z,101584.48
2019-02-21T06:00:51.597Z,101575.09
2019-02-21T06:03:47.277Z,101572.95
2019-02-21T06:06:49.203Z,101565.75
2019-02-21T06:09:24.936Z,101569.42
2019-02-21T06:12:32.812Z,101564.27
2019-02-21T06:15:14.023Z,101567.00
2019-02-21T06:18:09.755Z,101575.09
2019-02-21T06:20:59.876Z,101579.37
2019-02-21T06:23:55.698Z,101573.33
2019-02-21T06:26:31.835Z,101587.62
2019-02-21T06:29:03.239Z,101589.86
2019-02-21T06:31:31.219Z,101588.30
2019-02-21T06:33:59.186Z,101586.75
2019-02-21T06:36:27.235Z,101591.64
2019-02-21T06:38:55.707Z,101598.17
2019-02-21T06:41:23.641Z,101596.27
2019-02-21T06:43:52.765Z,101595.92
2019-02-21T06:46:20.814Z,101599.86
2019-02-21T06:48:48.792Z,101597.86
2019-02-21T06:51:16.454Z,101606.61
2019-02-21T06:53:43.699Z,101611.84
2019-02-21T06:56:11.532Z,101609.33
2019-02-21T06:58:38.933Z,101607.48
2019-02-21T07:01:06.959Z,101617.07
2019-02-21T07:03:34.754Z,101612.77
2019-02-21T07:06:02.941Z,101616.78
2019-02-21T07:08:30.829Z,101611.59
2019-02-21T07:11:05.846Z,101614.37
2019-02-21T07:13:27.294Z,101610.55
2019-02-21T07:15:54.442Z,101616.30
2019-02-21T07:18:22.178Z,101616.86
2019-02-21T07:20:49.919Z,101617.27
2019-02-21T07:23:17.458Z,101616.74
2019-02-21T07:25:46.638Z,101611.23
2019-02-21T07:28:15.902Z,101615.09
2019-02-21T07:30:43.995Z,101622.94
2019-02-21T07:33:11.732Z,101622.18
2019-02-21T07:35:39.555Z,101617.05
2019-02-21T07:38:07.305Z,101624.38
2019-02-21T07:40:34.700Z,101624.80
2019-02-21T07:43:02.540Z,101622.00
2019-02-21T07:45:30.117Z,101618.02
2019-02-21T07:47:57.630Z,101617.34
2019-02-21T07:50:25.235Z,101618.50
2019-02-21T07:53:02.082Z,101616.28
2019-02-21T07:55:23.286Z,101619.13
2019-02-21T07:57:50.867Z,101625.47
2019-02-21T08:00:18.599Z,101632.64
2019-02-21T08:02:45.819Z,101642.53
2019-02-21T08:05:13.216Z,101651.19
2019-02-21T08:07:40.734Z,101654.02
2019-02-21T08:10:08.522Z,101658.44
2019-02-21T08:12:35.742Z,101666.81
2019-02-21T08:15:04.037Z,101663.24
2019-02-21T08:17:31.706Z,101669.92
2019-02-21T08:20:07.984Z,101675.36
2019-02-21T08:22:29.672Z,101677.47
2019-02-21T08:24:57.283Z,101676.81
2019-02-21T08:27:24.922Z,101674.59
2019-02-21T08:29:52.484Z,101683.16
2019-02-21T08:32:24.397Z,101685.91
2019-02-21T08:34:52.802Z,101684.45
2019-02-21T08:37:20.852Z,101682.27
2019-02-21T08:39:48.356Z,101679.38
2019-02-21T08:42:16.300Z,101673.86
2019-02-21T08:44:43.442Z,101674.16
2019-02-21T08:47:11.089Z,101676.47
2019-02-21T08:49:39.085Z,101678.62
2019-02-21T08:52:09.944Z,101669.66
2019-02-21T08:54:37.074Z,101676.23
2019-02-21T08:57:04.953Z,101675.03
2019-02-21T08:59:32.749Z,101669.72
2019-02-21T09:02:00.450Z,101675.16
2019-02-21T09:04:28.843Z,101676.51
2019-02-21T09:06:56.034Z,101682.11
2019-02-21T09:09:24.083Z,101681.29
2019-02-21T09:11:53.775Z,101681.37
2019-02-21T09:14:21.400Z,101684.38
2019-02-21T09:16:49.113Z,101681.06
2019-02-21T09:19:16.524Z,101672.66
2019-02-21T09:21:44.407Z,101686.19
2019-02-21T09:24:13.909Z,101685.22
2019-02-21T09:26:41.497Z,101677.72
2019-02-21T09:29:08.818Z,101676.89
2019-02-21T09:31:36.273Z,101688.60
2019-02-21T09:34:03.681Z,101687.73
2019-02-21T09:36:31.088Z,101673.52
2019-02-21T09:38:58.543Z,101681.24
2019-02-21T09:41:28.571Z,101675.95
2019-02-21T09:43:55.459Z,101686.66
2019-02-21T09:46:23.041Z,101687.37
2019-02-21T09:48:50.625Z,101688.13
2019-02-21T09:51:18.414Z,101692.41
2019-02-21T09:53:45.859Z,101693.26
2019-02-21T09:56:13.250Z,101695.96
2019-02-21T09:58:45.786Z,101694.31
2019-02-21T10:01:13.425Z,101683.07
2019-02-21T10:03:41.088Z,101686.45
2019-02-21T10:06:09.095Z,101684.20
2019-02-21T10:08:36.484Z,101692.40
2019-02-21T10:11:03.631Z,101697.11
2019-02-21T10:13:31.043Z,101693.33
2019-02-21T10:15:59.328Z,101694.70
2019-02-21T10:18:27.889Z,101692.94
2019-02-21T10:20:56.714Z,101688.62
2019-02-21T10:23:24.556Z,101687.00
2019-02-21T10:25:52.034Z,101689.66
2019-02-21T10:28:19.742Z,101692.69
2019-02-21T10:30:47.753Z,101697.09
2019-02-21T10:33:15.730Z,101702.59
2019-02-21T10:35:43.145Z,101702.38
2019-02-21T10:38:10.850Z,101705.88
2019-02-21T10:40:38.521Z,101700.94
2019-02-21T10:43:06.023Z,101704.08
2019-02-21T10:45:33.512Z,101701.98
2019-02-21T10:48:01.264Z,101699.55
2019-02-21T10:50:29.070Z,101701.30
2019-02-21T10:52:56.602Z,101694.35
2019-02-21T10:55:24.330Z,101689.59
2019-02-21T10:57:52.090Z,101693.38
2019-02-21T11:00:26.039Z,101701.27
2019-02-21T11:02:54.859Z,101699.36
2019-02-21T11:05:22.605Z,101689.52
2019-02-21T11:07:49.718Z,101693.17
2019-02-21T11:10:20.963Z,101703.72
2019-02-21T11:12:48.468Z,101691.88
2019-02-21T11:15:16.142Z,101693.11
2019-02-21T11:17:43.867Z,101691.58
2019-02-21T11:20:14.476Z,101689.62
2019-02-21T11:22:42.325Z,101692.80
2019-02-21T11:25:10.699Z,101687.48
2019-02-21T11:27:38.658Z,101685.66
2019-02-21T11:30:10.534Z,101679.08
2019-02-21T11:32:37.975Z,101685.84
2019-02-21T11:35:06.697Z,101681.36
2019-02-21T11:37:42.745Z,101673.55
2019-02-21T11:40:05.825Z,101669.20
2019-02-21T11:42:33.333Z,101658.08
2019-02-21T11:45:00.945Z,101662.56
2019-02-21T11:47:29.943Z,101667.86
2019-02-21T11:49:57.639Z,101663.53
2019-02-21T11:52:24.774Z,101660.87
2019-02-21T11:54:52.680Z,101667.51
2019-02-21T11:57:20.184Z,101656.91
2019-02-21T11:59:48.130Z,101651.77
2019-02-21T12:02:16.055Z,101638.01
2019-02-21T12:04:43.962Z,101634.56
2019-02-21T12:07:11.467Z,101634.80
2019-02-21T12:09:39.882Z,101636.38
2019-02-21T12:12:10.301Z,101634.72
2019-02-21T12:14:37.640Z,101626.45
2019-02-21T12:17:05.284Z,101627.92
2019-02-21T12:19:32.769Z,101623.11
2019-02-21T12:22:00.642Z,101619.79
2019-02-21T12:24:28.241Z,101612.77
2019-02-21T12:26:56.476Z,101611.42
2019-02-21T12:29:24.236Z,101593.89
2019-02-21T12:31:51.854Z,101596.21
2019-02-21T12:34:19.324Z,101577.84
2019-02-21T12:36:47.031Z,101584.27
2019-02-21T12:39:14.303Z,101574.87
2019-02-21T12:41:42.019Z,101576.91
2019-02-21T12:44:09.467Z,101579.00
2019-02-21T12:46:37.165Z,101584.42
2019-02-21T12:49:04.792Z,101589.06
2019-02-21T12:51:32.603Z,101597.81
2019-02-21T12:54:00.558Z,101600.42
2019-02-21T12:56:28.051Z,101596.80
2019-02-21T12:58:55.933Z,101587.86
2019-02-21T13:01:23.292Z,101594.58
2019-02-21T13:03:50.698Z,101597.20
2019-02-21T13:06:18.696Z,101599.27
2019-02-21T13:08:47.233Z,101603.80
2019-02-21T13:11:15.105Z,101600.09
2019-02-21T13:13:42.773Z,101602.95
2019-02-21T13:16:10.311Z,101602.11
2019-02-21T13:18:37.885Z,101609.52
2019-02-21T13:21:05.157Z,101606.56
2019-02-21T13:23:32.516Z,101606.73
2019-02-21T13:26:00.594Z,101610.84
2019-02-21T13:28:29.070Z,101610.46
2019-02-21T13:30:56.909Z,101601.45
2019-02-21T13:33:24.365Z,101596.80
2019-02-21T13:35:53.228Z,101596.03
2019-02-21T13:38:20.796Z,101594.06
2019-02-21T13:40:49.656Z,101584.63
2019-02-21T13:43:17.112Z,101582.73
2019-02-21T13:45:44.262Z,101580.27
2019-02-21T13:48:11.914Z,101587.14
2019-02-21T13:50:39.408Z,101585.57
2019-02-21T13:53:07.723Z,101583.41
2019-02-21T13:55:36.035Z,101584.23
2019-02-21T13:58:03.499Z,101581.69
2019-02-21T14:00:30.863Z,101575.69
2019-02-21T14:02:58.321Z,101564.45
2019-02-21T14:05:26.094Z,101563.36
2019-02-21T14:07:53.262Z,101568.28
2019-02-21T14:10:20.858Z,101566.73
2019-02-21T14:12:48.407Z,101567.62
2019-02-21T14:15:18.831Z,101569.41
2019-02-21T14:17:46.783Z,101569.37
2019-02-21T14:20:14.999Z,101564.95
2019-02-21T14:22:42.498Z,101561.15
2019-02-21T14:25:10.472Z,101555.47
2019-02-21T14:27:38.123Z,101555.67
2019-02-21T14:30:09.007Z,101558.09
2019-02-21T14:32:36.299Z,101560.26
2019-02-21T14:35:04.687Z,101555.98
2019-02-21T14:37:32.016Z,101558.02
2019-02-21T14:39:59.991Z,101560.87
2019-02-21T14:42:27.922Z,101561.11
2019-02-21T14:44:55.653Z,101560.14
2019-02-21T14:47:23.648Z,101560.69
2019-02-21T14:49:50.748Z,101560.47
2019-02-21T14:52:18.430Z,101559.47
2019-02-21T14:54:46.268Z,101558.98
2019-02-21T14:57:15.352Z,101558.66
2019-02-21T14:59:44.790Z,101557.36
2019-02-21T15:02:12.668Z,101558.15
2019-02-21T15:04:39.935Z,101551.23
2019-02-21T15:07:11.483Z,101553.05
2019-02-21T15:09:39.678Z,101550.94
2019-02-21T15:12:06.949Z,101545.15
2019-02-21T15:14:34.090Z,101547.60
2019-02-21T15:17:03.879Z,101543.62
2019-02-21T15:19:31.587Z,101548.72
2019-02-21T15:21:58.851Z,101558.31
2019-02-21T15:24:26.081Z,101562.63
2019-02-21T15:26:54.369Z,101564.23
2019-02-21T15:29:21.751Z,101562.95
2019-02-21T15:31:49.263Z,101557.99
2019-02-21T15:34:16.906Z,101564.42
2019-02-21T15:36:44.747Z,101562.75
2019-02-21T15:39:12.841Z,101573.74
2019-02-21T15:41:40.431Z,101573.20
2019-02-21T15:44:08.099Z,101581.60
2019-02-21T15:46:36.192Z,101575.86
2019-02-21T15:49:04.237Z,101569.31
2019-02-21T15:51:31.833Z,101565.96
2019-02-21T15:53:59.091Z,101564.37
2019-02-21T15:56:26.268Z,101565.13
2019-02-21T15:58:53.689Z,101560.34
2019-02-21T16:01:22.138Z,101562.55
2019-02-21T16:03:49.444Z,101561.86
2019-02-21T16:06:17.383Z,101576.83
2019-02-21T16:08:45.104Z,101574.92
2019-02-21T16:11:12.666Z,101574.61
2019-02-21T16:13:40.530Z,101579.86
2019-02-21T16:16:09.368Z,101578.33
2019-02-21T16:18:36.631Z,101573.06
2019-02-21T16:21:04.295Z,101578.70
2019-02-21T16:23:32.053Z,101579.14
2019-02-21T16:25:59.458Z,101576.03
2019-02-21T16:28:27.566Z,101585.04
2019-02-21T16:30:56.071Z,101579.31
2019-02-21T16:33:23.463Z,101582.59
2019-02-21T16:35:51.119Z,101583.80
2019-02-21T16:38:18.755Z,101593.25
2019-02-21T16:40:46.659Z,101600.41
2019-02-21T16:43:13.944Z,101595.70
2019-02-21T16:45:46.147Z,101605.54
2019-02-21T16:48:11.417Z,101606.27
2019-02-21T16:50:39.210Z,101610.02
2019-02-21T16:53:07.042Z,101609.37
2019-02-21T16:55:34.573Z,101601.73
2019-02-21T16:58:01.743Z,101601.07
2019-02-21T17:00:38.908Z,101598.98
2019-02-21T17:02:58.395Z,101601.25
2019-02-21T17:05:26.617Z,101608.95
2019-02-21T17:07:54.057Z,101607.74
2019-02-21T17:10:21.895Z,101614.85
2019-02-21T17:12:50.136Z,101617.72
2019-02-21T17:15:18.953Z,101621.23
2019-02-21T17:17:46.702Z,101631.91
2019-02-21T17:20:14.781Z,101635.23
2019-02-21T17:22:43.046Z,101640.39
2019-02-21T17:25:12.137Z,101641.61
2019-02-21T17:27:39.702Z,101644.52
2019-02-21T17:30:09.243Z,101652.33
2019-02-21T17:32:37.370Z,101651.69
2019-02-21T17:35:05.869Z,101653.09
2019-02-21T17:37:33.656Z,101647.69
2019-02-21T17:40:00.915Z,101653.78
2019-02-21T17:42:28.820Z,101647.45
2019-02-21T17:44:56.167Z,101654.23
2019-02-21T17:47:23.836Z,101656.89
2019-02-21T17:49:51.865Z,101657.20
2019-02-21T17:52:19.239Z,101651.44
2019-02-21T17:54:47.816Z,101662.57
2019-02-21T17:57:31.170Z,101657.39
2019-02-21T17:59:58.393Z,101671.02
2019-02-21T18:02:26.109Z,101668.17
2019-02-21T18:04:54.078Z,101665.77
2019-02-21T18:07:22.348Z,101661.12
2019-02-21T18:09:49.667Z,101666.85
2019-02-21T18:12:17.164Z,101660.95
2019-02-21T18:14:44.676Z,101656.73
2019-02-21T18:17:12.339Z,101654.21
2019-02-21T18:19:40.274Z,101662.03
2019-02-21T18:22:08.262Z,101665.39
2019-02-21T18:24:36.630Z,101662.88
2019-02-21T18:27:04.453Z,101663.41
2019-02-21T18:29:32.196Z,101665.30
2019-02-21T18:31:59.581Z,101671.01
2019-02-21T18:34:27.650Z,101679.05
2019-02-21T18:36:54.920Z,101679.66
2019-02-21T18:39:23.373Z,101667.77
2019-02-21T18:41:50.933Z,101675.67
2019-02-21T18:44:18.434Z,101675.80
2019-02-21T18:46:46.020Z,101677.61
2019-02-21T18:49:14.395Z,101684.34
2019-02-21T18:51:42.015Z,101682.78
2019-02-21T18:54:09.854Z,101685.30
2019-02-21T18:56:37.307Z,101685.09
2019-02-21T18:59:05.228Z,101689.28
2019-02-21T19:01:32.753Z,101682.88
2019-02-21T19:04:00.311Z,101679.52
2019-02-21T19:06:28.071Z,101683.81
2019-02-21T19:08:55.640Z,101678.33
2019-02-21T19:11:23.301Z,101680.36
2019-02-21T19:13:51.372Z,101678.16
2019-02-21T19:16:24.887Z,101674.75
2019-02-21T19:18:54.577Z,101673.59
2019-02-21T19:21:22.572Z,101669.27
2019-02-21T19:23:53.880Z,101670.86
2019-02-21T19:26:21.258Z,101673.91
2019-02-21T19:28:49.715Z,101671.30
2019-02-21T19:31:18.850Z,101681.59
2019-02-21T19:33:46.444Z,101674.88
2019-02-21T19:36:13.932Z,101688.58
2019-02-21T19:38:42.382Z,101686.77
2019-02-21T19:41:10.297Z,101692.56
2019-02-21T19:43:38.465Z,101685.63
2019-02-21T19:46:07.850Z,101688.58
2019-02-21T19:48:35.767Z,101691.20
2019-02-21T19:51:03.466Z,101691.95
2019-02-21T19:53:31.519Z,101690.68
2019-02-21T19:55:59.288Z,101687.09
2019-02-21T19:58:26.612Z,101690.13
2019-02-21T20:00:54.546Z,101700.59
2019-02-21T20:03:22.406Z,101696.13
2019-02-21T20:05:50.337Z,101699.62
2019-02-21T20:08:21.314Z,101698.03
2019-02-21T20:10:47.895Z,101705.41
2019-02-21T20:13:15.966Z,101704.47
2019-02-21T20:15:43.967Z,101701.83
2019-02-21T20:18:11.821Z,101711.85
2019-02-21T20:20:40.214Z,101715.43
2019-02-21T20:23:07.842Z,101715.66
2019-02-21T20:25:36.375Z,101724.28
2019-02-21T20:28:04.097Z,101731.56
2019-02-21T20:30:31.915Z,101739.78
2019-02-21T20:33:00.026Z,101733.23
2019-02-21T20:35:27.788Z,101735.67
2019-02-21T20:37:55.400Z,101740.41
2019-02-21T20:40:23.305Z,101740.80
2019-02-21T20:42:50.893Z,101745.67
2019-02-21T20:45:18.399Z,101739.56
2019-02-21T20:47:46.047Z,101745.79
2019-02-21T20:50:13.792Z,101751.66
2019-02-21T20:52:41.573Z,101751.27
2019-02-21T20:55:09.349Z,101749.45
2019-02-21T20:57:37.169Z,101748.31
2019-02-21T21:00:07.120Z,101751.05
2019-02-21T21:02:34.496Z,101751.05
2019-02-21T21:05:04.904Z,101751.05
2019-02-21T21:07:35.289Z,101750.74
2019-02-21T21:10:07.173Z,101756.94
2019-02-21T21:12:34.367Z,101755.04
2019-02-21T21:15:02.579Z,101754.10
2019-02-21T21:17:30.506Z,101757.16
2019-02-21T21:19:58.087Z,101758.43
2019-02-21T21:22:27.237Z,101767.89
2019-02-21T21:24:54.753Z,101777.61
2019-02-21T21:27:22.488Z,101777.39
2019-02-21T21:29:51.095Z,101781.28
2019-02-21T21:32:18.592Z,101790.55
2019-02-21T21:34:46.461Z,101783.09
2019-02-21T21:37:14.817Z,101793.39
2019-02-21T21:39:45.288Z,101792.67
2019-02-21T21:42:13.666Z,101789.28
2019-02-21T21:44:41.510Z,101792.14
2019-02-21T21:47:09.206Z,101787.38
2019-02-21T21:49:39.445Z,101785.61
2019-02-21T21:52:07.255Z,101786.14
2019-02-21T21:54:45.776Z,101791.09
2019-02-21T21:57:13.578Z,101792.02
2019-02-21T21:59:41.505Z,101798.86
2019-02-21T22:02:09.205Z,101800.89
2019-02-21T22:04:36.958Z,101802.35
2019-02-21T22:07:05.034Z,101801.60
2019-02-21T22:09:32.615Z,101806.77
2019-02-21T22:12:00.099Z,101817.32
2019-02-21T22:14:27.769Z,101813.92
2019-02-21T22:16:55.286Z,101816.78
2019-02-21T22:19:22.501Z,101819.09
2019-02-21T22:21:50.600Z,101814.04
2019-02-21T22:24:18.429Z,101812.05
2019-02-21T22:26:45.787Z,101814.88
2019-02-21T22:29:13.668Z,101824.16
2019-02-21T22:31:41.509Z,101818.25
2019-02-21T22:34:09.337Z,101822.27
2019-02-21T22:36:37.236Z,101816.04
2019-02-21T22:39:15.974Z,101815.30
2019-02-21T22:41:36.549Z,101821.12
2019-02-21T22:44:04.711Z,101813.92
2019-02-21T22:46:32.611Z,101809.72
2019-02-21T22:49:00.349Z,101800.98
2019-02-21T22:51:28.126Z,101811.53
2019-02-21T22:53:55.398Z,101805.71
2019-02-21T22:56:23.026Z,101808.66
2019-02-21T22:58:50.541Z,101800.35
2019-02-21T23:01:29.447Z,101802.34
2019-02-21T23:04:32.697Z,101796.55
2019-02-21T23:07:42.105Z,101794.86
2019-02-21T23:10:09.865Z,101798.22
2019-02-21T23:12:37.434Z,101796.63
2019-02-21T23:15:06.453Z,101804.83
2019-02-21T23:17:34.186Z,101802.59
2019-02-21T23:20:01.845Z,101808.50
2019-02-21T23:22:29.691Z,101816.61
2019-02-21T23:24:57.330Z,101815.30
2019-02-21T23:27:24.715Z,101814.86
2019-02-21T23:29:51.829Z,101809.07
2019-02-21T23:32:19.604Z,101815.73
2019-02-21T23:34:47.430Z,101818.78
2019-02-21T23:37:15.175Z,101815.22
2019-02-21T23:39:42.984Z,101805.32
2019-02-21T23:42:10.358Z,101810.59
2019-02-21T23:44:38.417Z,101808.70
2019-02-21T23:47:05.949Z,101811.83
2019-02-21T23:49:33.653Z,101811.49
2019-02-21T23:52:00.873Z,101821.09
2019-02-21T23:54:28.343Z,101813.08
2019-02-21T23:56:56.383Z,101812.84
2019-02-21T23:59:23.688Z,101805.95
